createdAt,value
2022-07-29T00:00:58.750Z,21.26
2022-07-29T00:03:25.355Z,21.12
2022-07-29T00:05:54.041Z,21.24
2022-07-29T00:08:21.268Z,21.25
2022-07-29T00:10:48.067Z,21.10
2022-07-29T00:13:14.663Z,21.23
2022-07-29T00:15:41.368Z,21.07
2022-07-29T00:18:08.477Z,21.14
2022-07-29T00:20:35.023Z,21.19
2022-07-29T00:23:01.763Z,21.21
2022-07-29T00:25:28.323Z,21.17
2022-07-29T00:27:54.841Z,21.10
2022-07-29T00:30:21.526Z,21.24
2022-07-29T00:32:48.083Z,21.26
2022-07-29T00:35:33.269Z,21.20
2022-07-29T00:38:00.256Z,21.24
2022-07-29T00:40:28.860Z,21.13
2022-07-29T00:42:55.563Z,21.25
2022-07-29T00:45:23.195Z,21.26
2022-07-29T00:47:51.220Z,21.24
2022-07-29T00:50:18.781Z,21.27
2022-07-29T00:52:45.563Z,21.23
2022-07-29T00:55:15.190Z,21.26
2022-07-29T00:57:43.415Z,21.29
2022-07-29T01:00:13.336Z,21.24
2022-07-29T01:02:39.899Z,21.32
2022-07-29T01:05:07.728Z,21.31
2022-07-29T01:07:37.806Z,21.32
2022-07-29T01:10:06.313Z,21.32
2022-07-29T01:12:35.172Z,21.22
2022-07-29T01:15:04.166Z,21.31
2022-07-29T01:17:56.805Z,21.44
2022-07-29T01:21:21.338Z,21.46
2022-07-29T01:24:06.650Z,21.62
2022-07-29T01:26:43.931Z,21.64
2022-07-29T01:29:40.539Z,21.68
2022-07-29T01:32:28.496Z,21.68
2022-07-29T01:35:13.383Z,21.69
2022-07-29T01:37:58.284Z,21.68
2022-07-29T01:40:52.289Z,21.67
2022-07-29T01:43:22.075Z,21.68
2022-07-29T01:46:15.808Z,21.67
2022-07-29T01:48:48.411Z,21.66
2022-07-29T01:51:21.318Z,21.57
2022-07-29T01:54:14.127Z,21.66
2022-07-29T01:56:43.421Z,21.67
2022-07-29T01:59:11.499Z,21.65
2022-07-29T02:01:41.083Z,21.62
2022-07-29T02:04:11.355Z,21.55
2022-07-29T02:06:55.649Z,21.42
2022-07-29T02:09:24.351Z,21.45
2022-07-29T02:11:54.573Z,21.34
2022-07-29T02:14:23.569Z,21.21
2022-07-29T02:16:54.689Z,20.98
2022-07-29T02:19:24.624Z,21.00
2022-07-29T02:21:54.709Z,20.94
2022-07-29T02:24:23.483Z,20.80
2022-07-29T02:26:52.201Z,20.76
2022-07-29T02:29:23.925Z,20.76
2022-07-29T02:31:52.557Z,20.63
2022-07-29T02:34:21.758Z,20.60
2022-07-29T02:36:50.451Z,20.64
2022-07-29T02:39:18.325Z,20.65
2022-07-29T02:41:48.585Z,20.56
2022-07-29T02:44:18.793Z,20.55
2022-07-29T02:47:03.700Z,20.53
2022-07-29T02:49:43.753Z,20.50
2022-07-29T02:52:19.867Z,20.53
2022-07-29T02:54:57.772Z,20.53
2022-07-29T02:57:53.917Z,20.45
2022-07-29T03:00:24.658Z,20.50
2022-07-29T03:02:54.977Z,20.44
2022-07-29T03:05:23.208Z,20.42
2022-07-29T03:07:55.714Z,20.39
2022-07-29T03:10:22.786Z,20.36
2022-07-29T03:12:49.788Z,20.30
2022-07-29T03:15:17.339Z,20.18
2022-07-29T03:17:44.682Z,20.13
2022-07-29T03:20:12.726Z,20.02
2022-07-29T03:22:44.516Z,19.91
2022-07-29T03:25:12.641Z,19.90
2022-07-29T03:27:39.391Z,19.78
2022-07-29T03:30:08.258Z,19.84
2022-07-29T03:32:35.749Z,19.89
2022-07-29T03:35:02.415Z,19.92
2022-07-29T03:37:29.687Z,19.75
2022-07-29T03:39:58.078Z,19.59
2022-07-29T03:42:32.402Z,19.70
2022-07-29T03:45:04.473Z,19.52
2022-07-29T03:47:47.952Z,19.51
2022-07-29T03:50:20.362Z,19.41
2022-07-29T03:52:47.682Z,19.30
2022-07-29T03:55:15.718Z,19.22
2022-07-29T03:57:43.669Z,18.99
2022-07-29T04:00:10.650Z,19.09
2022-07-29T04:02:39.170Z,19.05
2022-07-29T04:05:06.317Z,19.00
2022-07-29T04:07:32.978Z,18.99
2022-07-29T04:09:59.487Z,18.96
2022-07-29T04:12:26.202Z,18.98
2022-07-29T04:14:52.881Z,18.82
2022-07-29T04:17:19.547Z,18.94
2022-07-29T04:19:46.305Z,18.91
2022-07-29T04:22:12.956Z,18.85
2022-07-29T04:24:42.856Z,18.89
2022-07-29T04:27:11.066Z,18.90
2022-07-29T04:29:37.706Z,18.87
2022-07-29T04:32:23.988Z,18.85
2022-07-29T04:34:50.614Z,18.77
2022-07-29T04:37:17.236Z,18.78
2022-07-29T04:39:43.894Z,18.75
2022-07-29T04:42:10.575Z,18.66
2022-07-29T04:44:39.740Z,18.64
2022-07-29T04:47:10.210Z,18.55
2022-07-29T04:49:39.492Z,18.71
2022-07-29T04:52:07.378Z,18.74
2022-07-29T04:54:34.496Z,18.68
2022-07-29T04:57:01.114Z,18.77
2022-07-29T04:59:28.074Z,18.85
2022-07-29T05:01:54.734Z,18.91
2022-07-29T05:04:21.533Z,18.95
2022-07-29T05:06:48.387Z,19.04
2022-07-29T05:09:15.115Z,19.08
2022-07-29T05:11:41.699Z,19.02
2022-07-29T05:14:08.292Z,19.04
2022-07-29T05:16:34.888Z,18.96
2022-07-29T05:19:01.605Z,19.05
2022-07-29T05:21:28.255Z,19.07
2022-07-29T05:23:55.127Z,19.11
2022-07-29T05:26:21.723Z,19.06
2022-07-29T05:28:48.340Z,19.18
2022-07-29T05:31:15.733Z,19.21
2022-07-29T05:33:42.995Z,19.27
2022-07-29T05:36:09.663Z,19.29
2022-07-29T05:38:37.104Z,19.30
2022-07-29T05:41:04.594Z,19.38
2022-07-29T05:43:31.738Z,19.45
2022-07-29T05:45:58.735Z,19.45
2022-07-29T05:48:25.714Z,19.54
2022-07-29T05:50:52.434Z,19.58
2022-07-29T05:53:20.506Z,19.63
2022-07-29T05:55:48.712Z,19.68
2022-07-29T05:58:15.406Z,19.70
2022-07-29T06:00:42.272Z,19.81
2022-07-29T06:03:08.886Z,19.75
2022-07-29T06:05:35.466Z,19.90
2022-07-29T06:08:02.065Z,19.75
2022-07-29T06:10:28.630Z,19.89
2022-07-29T06:12:55.757Z,19.88
2022-07-29T06:15:22.381Z,20.15
2022-07-29T06:17:59.082Z,20.22
2022-07-29T06:20:30.830Z,20.36
2022-07-29T06:22:57.881Z,20.65
2022-07-29T06:25:24.433Z,20.86
2022-07-29T06:27:52.456Z,21.23
2022-07-29T06:30:19.265Z,21.58
2022-07-29T06:32:45.811Z,21.84
2022-07-29T06:35:38.643Z,22.40
2022-07-29T06:37:59.795Z,22.95
2022-07-29T06:40:45.494Z,23.42
2022-07-29T06:43:12.200Z,23.53
2022-07-29T06:45:42.301Z,23.66
2022-07-29T06:48:09.779Z,23.69
2022-07-29T06:50:36.507Z,23.69
2022-07-29T06:53:03.440Z,23.95
2022-07-29T06:55:30.044Z,24.23
2022-07-29T06:57:56.570Z,24.28
2022-07-29T07:00:23.214Z,24.50
2022-07-29T07:02:49.912Z,24.37
2022-07-29T07:05:16.612Z,24.21
2022-07-29T07:07:43.229Z,24.37
2022-07-29T07:10:09.926Z,24.62
2022-07-29T07:12:36.513Z,24.86
2022-07-29T07:15:04.091Z,25.01
2022-07-29T07:17:30.606Z,25.06
2022-07-29T07:19:57.146Z,25.13
2022-07-29T07:22:23.741Z,25.17
2022-07-29T07:24:50.311Z,25.36
2022-07-29T07:27:16.845Z,25.50
2022-07-29T07:29:44.288Z,25.55
2022-07-29T07:32:11.303Z,25.53
2022-07-29T07:34:39.056Z,25.53
2022-07-29T07:37:06.258Z,25.56
2022-07-29T07:39:32.892Z,25.01
2022-07-29T07:41:59.653Z,24.55
2022-07-29T07:44:26.263Z,24.73
2022-07-29T07:46:53.441Z,24.82
2022-07-29T07:49:21.621Z,25.03
2022-07-29T07:51:50.518Z,25.53
2022-07-29T07:54:18.523Z,25.80
2022-07-29T07:56:50.783Z,25.89
2022-07-29T07:59:19.915Z,26.02
2022-07-29T08:01:55.300Z,26.21
2022-07-29T08:04:27.591Z,26.47
2022-07-29T08:06:55.369Z,26.75
2022-07-29T08:09:29.393Z,26.85
2022-07-29T08:11:57.585Z,27.17
2022-07-29T08:14:24.220Z,27.51
2022-07-29T08:16:50.999Z,27.96
2022-07-29T08:19:17.795Z,28.26
2022-07-29T08:21:44.297Z,28.56
2022-07-29T08:24:29.295Z,28.81
2022-07-29T08:26:55.921Z,28.66
2022-07-29T08:29:22.592Z,28.60
2022-07-29T08:31:49.254Z,28.72
2022-07-29T08:34:15.868Z,28.75
2022-07-29T08:36:42.503Z,28.17
2022-07-29T08:39:09.557Z,27.67
2022-07-29T08:41:36.632Z,27.57
2022-07-29T08:44:03.849Z,27.63
2022-07-29T08:46:30.533Z,27.77
2022-07-29T08:48:57.196Z,27.93
2022-07-29T08:51:26.434Z,27.91
2022-07-29T08:53:54.082Z,27.92
2022-07-29T08:56:21.458Z,28.06
2022-07-29T08:58:52.101Z,28.14
2022-07-29T09:01:35.222Z,27.95
2022-07-29T09:04:05.809Z,28.13
2022-07-29T09:06:35.657Z,28.10
2022-07-29T09:09:02.870Z,28.04
2022-07-29T09:11:29.651Z,27.86
2022-07-29T09:13:56.345Z,28.01
2022-07-29T09:16:50.955Z,28.05
2022-07-29T09:19:23.610Z,27.89
2022-07-29T09:21:59.790Z,27.56
2022-07-29T09:24:48.484Z,27.08
2022-07-29T09:27:29.946Z,26.61
2022-07-29T09:30:01.172Z,26.37
2022-07-29T09:32:28.914Z,26.42
2022-07-29T09:35:18.764Z,26.72
2022-07-29T09:37:45.805Z,26.85
2022-07-29T09:40:17.325Z,26.84
2022-07-29T09:42:46.268Z,26.81
2022-07-29T09:45:26.711Z,26.75
2022-07-29T09:47:53.417Z,26.76
2022-07-29T09:50:24.882Z,26.96
2022-07-29T09:52:53.048Z,26.99
2022-07-29T09:55:20.238Z,26.90
2022-07-29T09:57:48.065Z,26.39
2022-07-29T10:00:20.861Z,26.03
2022-07-29T10:02:48.741Z,25.89
2022-07-29T10:05:25.493Z,25.95
2022-07-29T10:07:57.955Z,26.14
2022-07-29T10:10:36.662Z,26.39
2022-07-29T10:13:09.936Z,26.66
2022-07-29T10:15:41.841Z,26.86
2022-07-29T10:18:10.436Z,26.98
2022-07-29T10:20:38.225Z,27.20
2022-07-29T10:23:05.391Z,27.37
2022-07-29T10:25:32.637Z,27.63
2022-07-29T10:27:59.426Z,27.61
2022-07-29T10:30:27.150Z,27.75
2022-07-29T10:33:17.357Z,28.06
2022-07-29T10:35:56.001Z,28.03
2022-07-29T10:38:47.072Z,27.90
2022-07-29T10:41:32.305Z,27.97
2022-07-29T10:44:23.168Z,27.70
2022-07-29T10:46:50.602Z,27.74
2022-07-29T10:49:24.387Z,27.75
2022-07-29T10:51:55.805Z,27.65
2022-07-29T10:54:42.447Z,27.68
2022-07-29T10:57:18.099Z,27.72
2022-07-29T10:59:46.513Z,27.44
2022-07-29T11:02:41.669Z,26.85
2022-07-29T11:05:14.950Z,26.86
2022-07-29T11:08:19.441Z,26.99
2022-07-29T11:10:46.933Z,27.17
2022-07-29T11:13:44.716Z,27.40
2022-07-29T11:16:16.037Z,27.57
2022-07-29T11:19:14.235Z,27.88
2022-07-29T11:21:55.003Z,28.10
2022-07-29T11:24:32.187Z,28.36
2022-07-29T11:27:20.913Z,28.43
2022-07-29T11:30:02.147Z,28.51
2022-07-29T11:32:39.858Z,28.57
2022-07-29T11:35:37.481Z,28.62
2022-07-29T11:38:29.348Z,28.92
2022-07-29T11:41:20.923Z,28.81
2022-07-29T11:43:54.888Z,28.73
2022-07-29T11:46:47.538Z,28.61
2022-07-29T11:49:19.550Z,28.79
2022-07-29T11:51:56.583Z,29.15
2022-07-29T11:54:27.857Z,29.17
2022-07-29T11:56:54.884Z,29.36
2022-07-29T11:59:22.837Z,29.47
2022-07-29T12:02:18.481Z,29.54
2022-07-29T12:04:55.490Z,29.69
2022-07-29T12:07:35.752Z,29.53
2022-07-29T12:10:04.032Z,29.49
2022-07-29T12:12:33.603Z,29.67
2022-07-29T12:15:20.337Z,29.58
2022-07-29T12:17:49.111Z,29.36
2022-07-29T12:20:27.367Z,29.23
2022-07-29T12:22:55.507Z,29.09
2022-07-29T12:25:33.836Z,29.24
2022-07-29T12:28:02.345Z,29.36
2022-07-29T12:30:41.595Z,29.29
2022-07-29T12:33:28.520Z,29.36
2022-07-29T12:36:06.040Z,29.59
2022-07-29T12:38:37.053Z,29.71
2022-07-29T12:41:04.727Z,29.81
2022-07-29T12:43:32.264Z,29.78
2022-07-29T12:46:12.110Z,29.88
2022-07-29T12:48:42.465Z,30.12
2022-07-29T12:51:11.066Z,30.15
2022-07-29T12:53:38.976Z,30.14
2022-07-29T12:56:20.524Z,30.11
2022-07-29T12:58:53.481Z,30.19
2022-07-29T13:01:21.056Z,30.20
2022-07-29T13:03:57.433Z,30.26
2022-07-29T13:06:30.553Z,30.15
2022-07-29T13:09:11.685Z,29.88
2022-07-29T13:11:47.924Z,29.86
2022-07-29T13:14:43.655Z,29.93
2022-07-29T13:17:13.848Z,29.94
2022-07-29T13:19:47.191Z,30.05
2022-07-29T13:22:16.917Z,29.91
2022-07-29T13:24:55.068Z,29.97
2022-07-29T13:27:24.761Z,29.95
2022-07-29T13:29:53.382Z,30.13
2022-07-29T13:32:27.897Z,30.17
2022-07-29T13:34:57.385Z,30.24
2022-07-29T13:37:24.488Z,30.13
2022-07-29T13:39:52.896Z,30.09
2022-07-29T13:42:20.317Z,30.04
2022-07-29T13:44:46.920Z,30.08
2022-07-29T13:47:13.967Z,30.27
2022-07-29T13:49:40.605Z,30.49
2022-07-29T13:52:08.425Z,30.55
2022-07-29T13:54:41.956Z,30.77
2022-07-29T13:57:09.710Z,30.70
2022-07-29T13:59:36.384Z,30.50
2022-07-29T14:02:03.532Z,30.31
2022-07-29T14:04:30.229Z,30.15
2022-07-29T14:06:56.833Z,29.83
2022-07-29T14:09:23.870Z,29.76
2022-07-29T14:11:52.293Z,29.77
2022-07-29T14:14:18.863Z,29.76
2022-07-29T14:16:46.559Z,29.53
2022-07-29T14:19:17.122Z,29.33
2022-07-29T14:21:43.679Z,29.24
2022-07-29T14:24:17.658Z,29.14
2022-07-29T14:26:46.548Z,28.85
2022-07-29T14:29:13.349Z,28.80
2022-07-29T14:31:39.925Z,28.51
2022-07-29T14:34:06.530Z,28.19
2022-07-29T14:36:33.150Z,28.04
2022-07-29T14:38:59.739Z,27.79
2022-07-29T14:41:29.140Z,27.75
2022-07-29T14:43:55.769Z,27.65
2022-07-29T14:46:22.541Z,27.55
2022-07-29T14:48:49.432Z,27.50
2022-07-29T14:51:16.211Z,27.55
2022-07-29T14:53:42.818Z,27.55
2022-07-29T14:56:34.186Z,27.27
2022-07-29T14:58:56.514Z,27.42
2022-07-29T15:01:23.129Z,27.57
2022-07-29T15:03:49.884Z,27.59
2022-07-29T15:06:16.486Z,27.63
2022-07-29T15:08:43.140Z,27.57
2022-07-29T15:11:09.786Z,27.61
2022-07-29T15:13:36.420Z,27.64
2022-07-29T15:16:03.247Z,27.73
2022-07-29T15:18:29.797Z,27.74
2022-07-29T15:20:56.460Z,27.83
2022-07-29T15:23:23.094Z,27.64
2022-07-29T15:25:49.601Z,27.72
2022-07-29T15:28:16.280Z,27.64
2022-07-29T15:30:42.966Z,27.71
2022-07-29T15:33:10.465Z,27.70
2022-07-29T15:35:40.848Z,27.72
2022-07-29T15:38:07.691Z,27.75
2022-07-29T15:40:34.341Z,27.70
2022-07-29T15:43:06.785Z,27.59
2022-07-29T15:46:03.366Z,27.63
2022-07-29T15:48:30.319Z,27.54
2022-07-29T15:50:57.603Z,27.48
2022-07-29T15:53:27.277Z,27.58
2022-07-29T15:55:58.027Z,27.53
2022-07-29T15:58:32.125Z,27.40
2022-07-29T16:01:00.601Z,27.28
2022-07-29T16:03:29.393Z,27.42
2022-07-29T16:05:56.272Z,27.46
2022-07-29T16:08:22.881Z,27.50
2022-07-29T16:10:51.277Z,27.50
2022-07-29T16:13:20.885Z,27.57
2022-07-29T16:16:01.852Z,27.52
2022-07-29T16:18:30.073Z,27.42
2022-07-29T16:20:57.402Z,27.46
2022-07-29T16:23:24.702Z,27.23
2022-07-29T16:25:59.619Z,27.31
2022-07-29T16:28:26.553Z,27.29
2022-07-29T16:30:53.127Z,27.23
2022-07-29T16:33:19.826Z,27.17
2022-07-29T16:35:46.451Z,27.17
2022-07-29T16:38:13.238Z,27.23
2022-07-29T16:40:41.128Z,27.25
2022-07-29T16:43:07.837Z,27.21
2022-07-29T16:45:45.428Z,27.05
2022-07-29T16:48:17.966Z,26.87
2022-07-29T16:50:44.834Z,26.79
2022-07-29T16:53:11.399Z,26.74
2022-07-29T16:55:38.311Z,26.51
2022-07-29T16:58:05.385Z,26.55
2022-07-29T17:00:32.249Z,26.55
2022-07-29T17:03:00.153Z,26.44
2022-07-29T17:05:28.126Z,26.31
2022-07-29T17:07:55.930Z,26.30
2022-07-29T17:10:22.686Z,26.23
2022-07-29T17:12:49.464Z,26.10
2022-07-29T17:15:18.573Z,25.89
2022-07-29T17:17:54.810Z,25.84
2022-07-29T17:20:24.550Z,25.78
2022-07-29T17:22:51.157Z,25.66
2022-07-29T17:25:20.998Z,25.53
2022-07-29T17:27:48.111Z,25.38
2022-07-29T17:30:14.700Z,25.20
2022-07-29T17:32:41.331Z,25.06
2022-07-29T17:35:27.082Z,24.92
2022-07-29T17:37:53.919Z,24.58
2022-07-29T17:40:20.703Z,24.51
2022-07-29T17:42:47.379Z,24.45
2022-07-29T17:45:13.996Z,24.34
2022-07-29T17:47:42.008Z,24.44
2022-07-29T17:50:08.916Z,24.37
2022-07-29T17:52:35.589Z,24.31
2022-07-29T17:55:02.736Z,24.29
2022-07-29T17:57:29.255Z,24.23
2022-07-29T17:59:56.152Z,24.18
2022-07-29T18:02:22.833Z,24.13
2022-07-29T18:04:53.238Z,24.18
2022-07-29T18:07:19.969Z,24.27
2022-07-29T18:09:46.601Z,24.34
2022-07-29T18:12:13.185Z,24.48
2022-07-29T18:14:39.789Z,24.37
2022-07-29T18:17:06.408Z,24.34
2022-07-29T18:19:33.048Z,24.22
2022-07-29T18:22:04.799Z,23.98
2022-07-29T18:24:32.556Z,23.77
2022-07-29T18:26:59.562Z,23.60
2022-07-29T18:29:28.924Z,23.43
2022-07-29T18:31:56.194Z,23.30
2022-07-29T18:34:23.116Z,23.16
2022-07-29T18:36:49.781Z,23.09
2022-07-29T18:39:20.263Z,23.06
2022-07-29T18:41:50.332Z,23.00
2022-07-29T18:44:18.334Z,22.91
2022-07-29T18:46:47.885Z,22.84
2022-07-29T18:49:14.970Z,22.82
2022-07-29T18:51:41.634Z,22.69
2022-07-29T18:54:09.527Z,22.54
2022-07-29T18:56:36.476Z,22.54
2022-07-29T18:59:03.338Z,22.42
2022-07-29T19:01:31.918Z,22.44
2022-07-29T19:03:59.145Z,22.32
2022-07-29T19:06:26.076Z,22.23
2022-07-29T19:08:53.328Z,22.12
2022-07-29T19:11:19.958Z,22.11
2022-07-29T19:13:46.611Z,22.13
2022-07-29T19:16:14.263Z,22.15
2022-07-29T19:18:41.471Z,22.17
2022-07-29T19:21:08.105Z,22.18
2022-07-29T19:24:06.371Z,22.12
2022-07-29T19:26:21.441Z,22.09
2022-07-29T19:28:49.271Z,21.99
2022-07-29T19:31:16.104Z,21.92
2022-07-29T19:33:44.446Z,21.96
2022-07-29T19:36:11.538Z,21.99
2022-07-29T19:38:39.554Z,21.97
2022-07-29T19:41:06.454Z,21.86
2022-07-29T19:43:49.460Z,21.92
2022-07-29T19:46:20.520Z,21.98
2022-07-29T19:48:47.275Z,22.08
2022-07-29T19:51:14.038Z,22.11
2022-07-29T19:53:40.661Z,22.14
2022-07-29T19:56:08.807Z,22.13
2022-07-29T19:58:35.835Z,22.07
2022-07-29T20:01:02.798Z,22.23
2022-07-29T20:03:40.006Z,22.22
2022-07-29T20:06:07.678Z,22.21
2022-07-29T20:08:34.726Z,22.23
2022-07-29T20:11:01.496Z,22.19
2022-07-29T20:13:28.176Z,22.31
2022-07-29T20:15:54.808Z,22.27
2022-07-29T20:18:21.388Z,22.19
2022-07-29T20:20:49.650Z,22.12
2022-07-29T20:23:17.144Z,22.07
2022-07-29T20:25:43.924Z,21.94
2022-07-29T20:28:10.534Z,22.00
2022-07-29T20:30:38.405Z,21.92
2022-07-29T20:33:05.713Z,21.94
2022-07-29T20:35:32.343Z,21.98
2022-07-29T20:38:00.356Z,21.96
2022-07-29T20:40:29.029Z,21.96
2022-07-29T20:42:55.947Z,21.98
2022-07-29T20:45:24.365Z,22.04
2022-07-29T20:47:52.141Z,22.08
2022-07-29T20:50:20.570Z,22.02
2022-07-29T20:52:51.636Z,22.08
2022-07-29T20:55:18.393Z,22.07
2022-07-29T20:57:45.014Z,22.08
2022-07-29T21:00:12.083Z,22.04
2022-07-29T21:02:38.894Z,21.92
2022-07-29T21:05:06.248Z,21.82
2022-07-29T21:07:32.965Z,21.87
2022-07-29T21:09:59.636Z,21.79
2022-07-29T21:12:26.262Z,21.83
2022-07-29T21:14:52.856Z,21.75
2022-07-29T21:17:22.686Z,21.77
2022-07-29T21:19:52.596Z,21.60
2022-07-29T21:22:21.896Z,21.68
2022-07-29T21:24:49.247Z,21.63
2022-07-29T21:27:34.985Z,21.60
2022-07-29T21:30:06.335Z,21.62
2022-07-29T21:32:32.973Z,21.50
2022-07-29T21:34:59.659Z,21.42
2022-07-29T21:37:26.329Z,21.32
2022-07-29T21:39:52.912Z,21.27
2022-07-29T21:42:19.483Z,21.38
2022-07-29T21:44:46.174Z,21.43
2022-07-29T21:47:12.907Z,21.41
2022-07-29T21:49:39.923Z,21.33
2022-07-29T21:52:08.108Z,21.28
2022-07-29T21:54:35.805Z,21.08
2022-07-29T21:57:02.609Z,21.27
2022-07-29T21:59:29.712Z,21.11
2022-07-29T22:01:56.656Z,21.10
2022-07-29T22:04:23.390Z,21.29
2022-07-29T22:06:50.024Z,21.28
2022-07-29T22:09:16.604Z,21.27
2022-07-29T22:11:43.602Z,21.16
2022-07-29T22:14:10.230Z,21.06
2022-07-29T22:16:37.025Z,20.91
2022-07-29T22:19:04.089Z,20.88
2022-07-29T22:21:30.987Z,20.73
2022-07-29T22:23:57.764Z,20.59
2022-07-29T22:26:24.357Z,20.61
2022-07-29T22:28:50.973Z,20.55
2022-07-29T22:31:17.748Z,20.51
2022-07-29T22:33:44.396Z,20.47
2022-07-29T22:36:10.954Z,20.40
2022-07-29T22:38:37.588Z,20.33
2022-07-29T22:41:04.225Z,20.26
2022-07-29T22:43:30.825Z,20.29
2022-07-29T22:45:57.493Z,20.24
2022-07-29T22:48:24.282Z,20.28
2022-07-29T22:50:51.588Z,20.25
2022-07-29T22:53:18.245Z,20.36
2022-07-29T22:55:45.318Z,20.38
2022-07-29T22:58:11.873Z,20.53
2022-07-29T23:00:38.688Z,20.50
2022-07-29T23:03:05.387Z,20.52
2022-07-29T23:05:32.654Z,20.47
2022-07-29T23:07:59.592Z,20.37
2022-07-29T23:10:26.198Z,20.29
2022-07-29T23:12:52.813Z,20.27
2022-07-29T23:15:19.624Z,20.40
2022-07-29T23:17:46.284Z,20.43
2022-07-29T23:20:14.778Z,20.26
2022-07-29T23:22:42.046Z,20.37
2022-07-29T23:25:08.746Z,20.41
2022-07-29T23:27:35.465Z,20.45
2022-07-29T23:30:02.544Z,20.47
2022-07-29T23:32:29.215Z,20.46
2022-07-29T23:34:55.911Z,20.42
2022-07-29T23:37:22.790Z,20.43
2022-07-29T23:39:49.398Z,20.43
2022-07-29T23:42:16.269Z,20.41
2022-07-29T23:44:43.133Z,20.41
2022-07-29T23:47:09.776Z,20.28
2022-07-29T23:49:36.322Z,20.35
2022-07-29T23:52:02.918Z,20.39
2022-07-29T23:54:29.805Z,20.43
2022-07-29T23:56:57.975Z,20.36
2022-07-29T23:59:25.146Z,20.48
